Time;durP1;ratioP1;P1;durP2;ratioP2;P2;SDS_P1;SDS_P2;PMS_P1;PMS_P2;Temp;Humidity;BMP_temperature;BMP_pressure;BME280_temperature;BME280_humidity;BME280_pressure;Samples;Min_cycle;Max_cycle;Signal;HPM_P1;HPM_P2
2022/12/31 00:00:16;;;;;;;10.80;5.80;;;11.80;99.90;;;;;;5051844;28;20054;-66
2022/12/31 00:02:42;;;;;;;10.93;5.70;;;11.80;99.90;;;;;;5049770;28;20084;-66
2022/12/31 00:05:10;;;;;;;13.13;6.43;;;11.70;99.90;;;;;;5052423;28;20455;-67
2022/12/31 00:07:38;;;;;;;8.88;6.20;;;11.80;99.90;;;;;;5044181;28;20041;-63
2022/12/31 00:10:05;;;;;;;12.65;6.75;;;11.80;99.90;;;;;;5049937;28;20056;-60
2022/12/31 00:12:32;;;;;;;12.32;6.30;;;11.70;99.90;;;;;;5051570;28;20171;-58
2022/12/31 00:14:59;;;;;;;8.85;5.95;;;11.70;99.90;;;;;;5052382;28;20505;-58
2022/12/31 00:17:26;;;;;;;9.95;5.13;;;11.70;99.90;;;;;;5051877;28;20111;-65
2022/12/31 00:19:52;;;;;;;8.10;5.50;;;11.70;99.90;;;;;;5053929;28;20053;-66
2022/12/31 00:22:19;;;;;;;12.98;6.18;;;11.70;99.90;;;;;;5050640;28;20076;-67
2022/12/31 00:24:47;;;;;;;11.00;5.72;;;11.70;99.90;;;;;;5052364;28;20409;-75
2022/12/31 00:27:15;;;;;;;8.30;5.95;;;11.70;99.90;;;;;;5055028;28;20103;-72
2022/12/31 00:29:41;;;;;;;11.88;6.25;;;11.80;99.90;;;;;;5056150;28;20049;-75
2022/12/31 00:32:08;;;;;;;14.40;7.03;;;11.80;99.90;;;;;;5059760;28;20053;-75
2022/12/31 00:34:35;;;;;;;11.25;6.82;;;11.80;99.90;;;;;;5059527;28;20084;-79
2022/12/31 00:37:02;;;;;;;12.48;6.78;;;11.80;99.90;;;;;;5057316;28;20099;-69
2022/12/31 00:39:29;;;;;;;14.25;6.93;;;11.70;99.90;;;;;;5059901;28;20049;-71
2022/12/31 00:41:57;;;;;;;13.15;6.95;;;11.80;99.90;;;;;;5057133;28;20550;-62
2022/12/31 00:44:24;;;;;;;14.88;6.90;;;11.70;99.90;;;;;;5055560;28;20045;-55
2022/12/31 00:46:50;;;;;;;14.77;7.07;;;11.80;99.90;;;;;;5055919;28;20053;-66
2022/12/31 00:49:17;;;;;;;15.90;7.53;;;11.80;99.90;;;;;;5055355;28;20099;-65
2022/12/31 00:51:45;;;;;;;15.23;6.78;;;11.80;99.90;;;;;;5055499;28;20045;-67
2022/12/31 00:54:12;;;;;;;17.83;7.22;;;11.80;99.90;;;;;;5053968;28;20052;-65
2022/12/31 00:56:39;;;;;;;10.75;6.20;;;11.80;99.90;;;;;;5052225;28;20107;-67
2022/12/31 00:59:07;;;;;;;13.00;7.00;;;11.80;99.90;;;;;;5055564;28;20048;-65
2022/12/31 01:01:34;;;;;;;12.65;6.22;;;11.80;99.90;;;;;;5054972;28;20094;-66
2022/12/31 01:04:03;;;;;;;11.32;6.68;;;11.80;99.90;;;;;;5053059;28;20092;-66
2022/12/31 01:06:30;;;;;;;14.70;6.45;;;11.80;99.90;;;;;;5054924;28;20044;-67
2022/12/31 01:08:57;;;;;;;11.43;6.05;;;11.80;99.90;;;;;;5055113;28;20093;-67
2022/12/31 01:11:27;;;;;;;10.43;6.15;;;11.80;99.90;;;;;;5054349;28;20056;-66
2022/12/31 01:13:55;;;;;;;14.90;5.75;;;11.80;99.90;;;;;;5055215;28;20099;-66
2022/12/31 01:16:24;;;;;;;11.50;6.07;;;11.70;99.90;;;;;;5060496;28;20104;-68
2022/12/31 01:18:51;;;;;;;10.07;6.15;;;11.80;99.90;;;;;;5063598;28;20053;-62
2022/12/31 01:21:18;;;;;;;14.25;6.38;;;11.70;99.90;;;;;;5061074;28;20099;-67
2022/12/31 01:23:45;;;;;;;10.25;5.85;;;11.80;99.90;;;;;;5059218;28;20049;-69
2022/12/31 01:26:13;;;;;;;12.40;5.63;;;11.80;99.90;;;;;;5056605;28;20085;-69
2022/12/31 01:28:40;;;;;;;14.10;6.03;;;11.70;99.90;;;;;;5056959;28;20076;-68
2022/12/31 01:31:07;;;;;;;12.63;5.68;;;11.70;99.90;;;;;;5058926;28;20468;-52
2022/12/31 01:33:35;;;;;;;10.43;5.15;;;11.70;99.90;;;;;;5059580;28;20053;-66
2022/12/31 01:36:03;;;;;;;11.65;5.10;;;11.80;99.90;;;;;;5059578;28;20546;-68
2022/12/31 01:38:30;;;;;;;10.95;5.05;;;11.70;99.90;;;;;;5061411;28;20088;-69
2022/12/31 01:40:57;;;;;;;11.63;4.70;;;11.70;99.90;;;;;;5061381;28;20048;-73
2022/12/31 01:43:23;;;;;;;8.85;5.28;;;11.70;99.90;;;;;;5060365;28;20041;-69
2022/12/31 01:45:52;;;;;;;11.02;5.15;;;11.70;99.90;;;;;;5060238;28;20420;-70
2022/12/31 01:48:21;;;;;;;8.88;4.63;;;11.70;99.90;;;;;;5056263;28;20083;-68
2022/12/31 01:50:49;;;;;;;8.95;4.50;;;11.70;99.90;;;;;;5052526;28;20124;-56
2022/12/31 01:53:15;;;;;;;10.70;4.93;;;11.70;99.90;;;;;;5056382;28;20102;-64
2022/12/31 01:55:47;;;;;;;9.48;4.40;;;11.70;99.90;;;;;;5053972;28;20105;-61
2022/12/31 01:58:15;;;;;;;7.15;4.20;;;11.70;99.90;;;;;;5054738;28;20044;-63
2022/12/31 02:00:42;;;;;;;6.95;4.32;;;11.70;99.90;;;;;;5056893;28;20060;-62
2022/12/31 02:03:09;;;;;;;9.20;4.18;;;11.70;99.90;;;;;;5056865;28;20069;-62
2022/12/31 02:05:38;;;;;;;9.93;4.47;;;11.70;99.90;;;;;;5054679;28;20138;-63
2022/12/31 02:08:06;;;;;;;10.10;4.00;;;11.60;99.90;;;;;;5054518;28;20083;-62
2022/12/31 02:10:33;;;;;;;12.55;4.40;;;11.70;99.90;;;;;;5053453;28;20071;-63
2022/12/31 02:12:59;;;;;;;7.93;4.28;;;11.60;99.90;;;;;;5056099;28;20073;-64
2022/12/31 02:15:32;;;;;;;6.15;3.70;;;11.70;99.90;;;;;;5055765;28;20052;-61
2022/12/31 02:18:02;;;;;;;7.55;4.00;;;11.70;99.90;;;;;;5054341;28;20076;-62
2022/12/31 02:20:57;;;;;;;9.50;3.55;;;11.60;99.90;;;;;;5036006;28;20104;-63
2022/12/31 02:23:53;;;;;;;7.80;3.65;;;11.60;99.90;;;;;;5003495;28;20085;-57
2022/12/31 02:26:48;;;;;;;9.90;3.65;;;11.60;99.90;;;;;;5054925;28;20106;-60
2022/12/31 02:29:44;;;;;;;12.63;3.85;;;11.60;99.90;;;;;;5053475;28;20088;-62
2022/12/31 02:32:14;;;;;;;7.13;3.33;;;11.60;99.90;;;;;;5055790;28;20076;-60
2022/12/31 02:34:43;;;;;;;9.40;2.67;;;11.60;99.90;;;;;;5054737;28;20485;-59
2022/12/31 02:37:11;;;;;;;9.45;3.20;;;11.60;99.90;;;;;;5057253;28;20084;-64
2022/12/31 02:39:38;;;;;;;7.55;2.90;;;11.50;99.90;;;;;;5058388;28;20052;-65
2022/12/31 02:42:05;;;;;;;4.53;2.08;;;11.50;99.90;;;;;;5059186;28;20060;-66
2022/12/31 02:44:33;;;;;;;6.55;2.40;;;11.50;99.90;;;;;;5059106;28;20107;-66
2022/12/31 02:47:06;;;;;;;5.65;2.03;;;11.50;99.90;;;;;;5056321;28;20122;-66
2022/12/31 02:49:39;;;;;;;7.38;1.63;;;11.50;99.90;;;;;;5056314;28;20056;-66
2022/12/31 02:52:09;;;;;;;3.22;1.10;;;11.50;99.90;;;;;;5056609;28;20091;-59
2022/12/31 02:54:39;;;;;;;6.15;1.45;;;11.40;99.90;;;;;;5056550;28;20557;-65
2022/12/31 02:57:08;;;;;;;4.50;0.90;;;11.40;99.90;;;;;;5057148;28;20080;-66
2022/12/31 03:02:21;;;;;;;5.50;0.90;;;11.30;99.90;;;;;;5058099;28;20402;-68
2022/12/31 03:04:51;;;;;;;6.85;1.17;;;11.30;99.90;;;;;;5058928;28;20057;-67
2022/12/31 03:07:20;;;;;;;4.80;0.95;;;11.30;99.90;;;;;;5044923;28;20524;-66
2022/12/31 03:09:46;;;;;;;7.28;1.10;;;11.30;99.90;;;;;;5055777;28;20075;-64
2022/12/31 03:14:58;;;;;;;3.55;0.82;;;11.20;99.90;;;;;;5060096;28;20045;-65
2022/12/31 03:17:24;;;;;;;3.17;0.90;;;11.20;99.90;;;;;;5060346;28;20068;-59
2022/12/31 03:22:39;;;;;;;3.22;1.00;;;11.20;99.90;;;;;;5062093;28;20049;-71
2022/12/31 03:27:51;;;;;;;6.30;1.10;;;11.20;99.90;;;;;;5058378;28;20057;-65
2022/12/31 03:30:18;;;;;;;5.88;1.27;;;11.20;99.90;;;;;;5054439;28;20084;-63
2022/12/31 03:32:45;;;;;;;5.85;1.00;;;11.20;99.90;;;;;;5053891;28;20049;-66
2022/12/31 03:35:14;;;;;;;3.08;1.15;;;11.10;99.90;;;;;;5053448;28;20041;-64
2022/12/31 03:37:41;;;;;;;4.43;1.38;;;11.10;99.90;;;;;;5053601;28;20075;-67
2022/12/31 03:40:09;;;;;;;7.47;1.67;;;11.10;99.90;;;;;;5053847;28;20048;-66
2022/12/31 03:42:36;;;;;;;5.55;1.50;;;11.10;99.90;;;;;;5054511;28;20080;-63
2022/12/31 03:45:04;;;;;;;5.13;1.63;;;11.10;99.90;;;;;;5057603;28;20466;-65
2022/12/31 03:47:30;;;;;;;6.38;1.80;;;11.10;99.90;;;;;;5058553;28;20041;-65
2022/12/31 03:49:57;;;;;;;9.73;2.45;;;11.10;99.90;;;;;;5058370;28;20485;-71
2022/12/31 03:52:25;;;;;;;7.10;2.13;;;11.10;99.90;;;;;;5057126;28;20550;-59
2022/12/31 03:54:52;;;;;;;5.90;2.65;;;11.10;99.90;;;;;;5057092;28;20088;-66
2022/12/31 03:57:19;;;;;;;10.23;2.58;;;11.10;99.90;;;;;;5059949;28;20045;-67
2022/12/31 03:59:46;;;;;;;7.72;2.72;;;11.20;99.90;;;;;;5059380;28;20064;-69
2022/12/31 04:02:12;;;;;;;8.27;2.90;;;11.20;99.90;;;;;;5061796;28;20095;-65
2022/12/31 04:04:39;;;;;;;7.93;2.85;;;11.10;99.90;;;;;;5060287;28;20041;-66
2022/12/31 04:07:06;;;;;;;9.25;3.25;;;11.20;99.90;;;;;;5060289;28;20057;-67
2022/12/31 04:09:34;;;;;;;7.40;3.03;;;11.20;99.90;;;;;;5059016;28;20114;-68
2022/12/31 04:12:01;;;;;;;7.10;3.20;;;11.20;99.90;;;;;;5057025;28;20394;-56
2022/12/31 04:14:28;;;;;;;7.45;3.17;;;11.20;99.90;;;;;;5057012;28;20098;-62
2022/12/31 04:16:54;;;;;;;8.95;3.30;;;11.20;99.90;;;;;;5059205;28;20474;-64
2022/12/31 04:19:21;;;;;;;6.97;3.35;;;11.20;99.90;;;;;;5062484;28;20076;-65
2022/12/31 04:21:48;;;;;;;5.60;3.03;;;11.20;99.90;;;;;;5060285;28;20110;-63
2022/12/31 04:24:15;;;;;;;8.82;3.35;;;11.20;99.90;;;;;;5059493;28;20071;-62
2022/12/31 04:26:43;;;;;;;5.47;2.72;;;11.20;99.90;;;;;;5058528;28;20404;-65
2022/12/31 04:29:10;;;;;;;7.72;3.20;;;11.20;99.90;;;;;;5057769;28;20477;-63
2022/12/31 04:31:37;;;;;;;9.25;3.28;;;11.20;99.90;;;;;;5059196;28;20083;-67
2022/12/31 04:34:04;;;;;;;7.22;3.20;;;11.30;99.90;;;;;;5062319;28;20094;-63
2022/12/31 04:36:30;;;;;;;6.78;3.10;;;11.30;99.90;;;;;;5059969;28;20053;-63
2022/12/31 04:38:57;;;;;;;9.15;2.70;;;11.30;99.90;;;;;;5052200;28;20119;-63
2022/12/31 04:41:25;;;;;;;5.97;2.45;;;11.30;99.90;;;;;;5045932;28;20072;-54
2022/12/31 04:43:54;;;;;;;10.88;2.65;;;11.20;99.90;;;;;;5059395;28;20113;-65
2022/12/31 04:46:24;;;;;;;8.00;2.42;;;11.20;99.90;;;;;;5063933;28;20473;-64
2022/12/31 04:48:50;;;;;;;5.28;1.95;;;11.20;99.90;;;;;;5062972;28;20079;-66
2022/12/31 04:51:17;;;;;;;7.25;2.20;;;11.30;99.90;;;;;;5063794;28;20048;-71
2022/12/31 04:53:44;;;;;;;7.53;2.08;;;11.20;99.90;;;;;;5063428;28;20102;-67
2022/12/31 04:56:11;;;;;;;8.93;2.15;;;11.20;99.90;;;;;;5064327;28;20049;-68
2022/12/31 04:58:38;;;;;;;9.23;2.30;;;11.20;99.90;;;;;;5061257;28;20084;-65
2022/12/31 05:01:06;;;;;;;8.73;2.15;;;11.20;99.90;;;;;;5061785;28;20095;-66
2022/12/31 05:03:33;;;;;;;9.70;2.40;;;11.20;99.90;;;;;;5059944;28;20099;-66
2022/12/31 05:06:01;;;;;;;7.63;2.33;;;11.20;99.90;;;;;;5059231;28;20092;-62
2022/12/31 05:08:27;;;;;;;9.85;2.55;;;11.20;99.90;;;;;;5059084;28;20077;-63
2022/12/31 05:10:54;;;;;;;7.35;2.80;;;11.20;99.90;;;;;;5061528;28;20115;-69
2022/12/31 05:13:21;;;;;;;6.53;2.50;;;11.20;99.90;;;;;;5061851;28;20080;-72
2022/12/31 05:15:48;;;;;;;9.82;3.05;;;11.20;99.90;;;;;;5060847;28;20171;-66
2022/12/31 05:18:16;;;;;;;9.68;2.88;;;11.20;99.90;;;;;;5057189;28;20045;-65
2022/12/31 05:20:43;;;;;;;9.30;3.50;;;11.20;99.90;;;;;;5055444;28;20092;-67
2022/12/31 05:23:09;;;;;;;8.98;2.92;;;11.20;99.90;;;;;;5058906;28;20405;-66
2022/12/31 05:25:36;;;;;;;11.68;2.78;;;11.20;99.90;;;;;;5055263;28;20084;-67
2022/12/31 05:28:03;;;;;;;6.95;2.45;;;11.20;99.90;;;;;;5055423;28;20138;-59
2022/12/31 05:30:30;;;;;;;7.63;3.03;;;11.20;99.90;;;;;;5055344;28;20091;-65
2022/12/31 05:32:57;;;;;;;6.90;2.67;;;11.20;99.90;;;;;;5054299;28;20351;-62
2022/12/31 05:35:25;;;;;;;7.43;2.60;;;11.20;99.90;;;;;;5053291;28;20083;-64
2022/12/31 05:37:52;;;;;;;6.70;2.95;;;11.20;99.90;;;;;;5055996;28;20107;-59
2022/12/31 05:40:18;;;;;;;7.25;2.78;;;11.10;99.90;;;;;;5050690;28;20123;-63
2022/12/31 05:42:45;;;;;;;7.50;2.97;;;11.10;99.90;;;;;;5057615;28;20041;-62
2022/12/31 05:45:14;;;;;;;6.70;3.13;;;11.20;99.90;;;;;;5055423;28;20110;-63
2022/12/31 05:47:41;;;;;;;5.75;3.20;;;11.10;99.90;;;;;;5052909;28;20482;-63
2022/12/31 05:50:08;;;;;;;7.38;3.70;;;11.10;99.90;;;;;;5033754;28;20076;-60
2022/12/31 05:52:36;;;;;;;16.27;3.65;;;11.10;99.90;;;;;;5051154;28;20073;-63
2022/12/31 05:55:03;;;;;;;10.65;4.05;;;11.10;99.90;;;;;;5055150;28;20349;-64
2022/12/31 05:57:30;;;;;;;10.25;3.97;;;11.10;99.90;;;;;;5060190;28;20052;-62
2022/12/31 05:59:57;;;;;;;7.13;3.83;;;11.10;99.90;;;;;;5058095;28;20092;-59
2022/12/31 06:02:24;;;;;;;6.43;3.88;;;11.20;99.90;;;;;;5058640;28;20138;-63
2022/12/31 06:04:50;;;;;;;6.50;3.65;;;11.10;99.90;;;;;;5057154;28;20091;-59
2022/12/31 06:07:20;;;;;;;5.78;3.30;;;11.20;99.90;;;;;;5057294;28;20454;-62
2022/12/31 06:09:48;;;;;;;7.22;3.20;;;11.20;99.90;;;;;;5055290;28;20064;-61
2022/12/31 06:12:15;;;;;;;313.58;139.73;;;11.10;99.90;;;;;;5056151;28;20049;-61
2022/12/31 06:14:42;;;;;;;7.90;3.47;;;11.10;99.90;;;;;;5057701;28;20066;-63
2022/12/31 06:17:09;;;;;;;4.75;2.75;;;11.10;99.90;;;;;;5057703;28;20110;-64
2022/12/31 06:19:36;;;;;;;4.78;2.60;;;11.10;99.90;;;;;;5059954;28;20096;-60
2022/12/31 06:22:02;;;;;;;6.72;3.05;;;11.10;99.90;;;;;;5058965;28;20535;-59
2022/12/31 06:24:29;;;;;;;5.57;2.35;;;11.10;99.90;;;;;;5059265;28;20049;-57
2022/12/31 06:26:57;;;;;;;4.35;2.40;;;11.10;99.90;;;;;;5059675;28;20481;-62
2022/12/31 06:29:24;;;;;;;5.05;2.55;;;11.10;99.90;;;;;;5058862;28;20061;-62
2022/12/31 06:31:51;;;;;;;5.65;2.60;;;11.10;99.90;;;;;;5058606;28;20111;-61
2022/12/31 06:34:18;;;;;;;6.22;2.90;;;11.10;99.90;;;;;;5057096;28;20091;-63
2022/12/31 06:36:45;;;;;;;5.20;2.58;;;11.10;99.90;;;;;;5055938;28;20061;-62
2022/12/31 06:39:11;;;;;;;5.85;2.47;;;11.10;99.90;;;;;;5055754;28;20044;-61
2022/12/31 06:41:38;;;;;;;4.63;2.60;;;11.10;99.90;;;;;;5055144;28;20076;-62
2022/12/31 06:44:06;;;;;;;7.15;2.83;;;11.10;99.90;;;;;;5054832;28;20134;-62
2022/12/31 06:46:33;;;;;;;5.05;2.30;;;11.10;99.90;;;;;;5056773;28;20057;-61
2022/12/31 06:49:00;;;;;;;5.25;2.20;;;11.10;99.90;;;;;;5053649;28;20084;-61
2022/12/31 06:51:27;;;;;;;6.55;1.92;;;11.00;99.90;;;;;;5054977;28;20111;-61
2022/12/31 06:53:54;;;;;;;5.15;2.20;;;11.10;99.90;;;;;;5054163;28;20436;-60
2022/12/31 06:56:22;;;;;;;10.65;6.88;;;11.10;99.90;;;;;;5054787;28;20084;-62
2022/12/31 06:58:49;;;;;;;4.88;2.90;;;11.10;99.90;;;;;;5054620;28;20118;-58
2022/12/31 07:01:35;;;;;;;3.63;2.53;;;11.00;99.90;;;;;;5052954;28;20103;-58
2022/12/31 07:04:07;;;;;;;5.40;2.38;;;11.00;99.90;;;;;;5051135;28;20505;-59
2022/12/31 07:06:36;;;;;;;4.65;2.10;;;11.00;99.90;;;;;;5053748;28;20095;-61
2022/12/31 07:09:04;;;;;;;2.85;1.63;;;11.00;99.90;;;;;;5056817;28;20053;-56
2022/12/31 07:11:35;;;;;;;1.98;1.70;;;11.00;99.90;;;;;;5055230;28;20079;-62
2022/12/31 07:14:07;;;;;;;4.57;1.75;;;11.00;99.90;;;;;;5052346;28;20495;-60
2022/12/31 07:16:40;;;;;;;1.95;1.70;;;11.00;99.90;;;;;;5043640;28;20041;-53
2022/12/31 07:19:14;;;;;;;3.28;1.63;;;11.00;99.90;;;;;;5052756;28;20068;-62
2022/12/31 07:21:42;;;;;;;4.55;2.58;;;11.00;99.90;;;;;;5055514;28;20044;-61
2022/12/31 07:24:10;;;;;;;6.38;3.25;;;11.00;99.90;;;;;;5054664;28;20045;-63
2022/12/31 07:26:46;;;;;;;3.88;2.38;;;11.10;99.90;;;;;;5056158;28;20083;-60
2022/12/31 07:29:16;;;;;;;3.10;2.80;;;11.10;99.90;;;;;;5054005;28;20114;-62
2022/12/31 07:31:53;;;;;;;3.13;2.80;;;11.00;99.90;;;;;;5046283;28;20095;-64
2022/12/31 07:34:22;;;;;;;5.70;3.50;;;11.00;99.90;;;;;;5048005;28;20049;-59
2022/12/31 07:36:55;;;;;;;5.20;2.72;;;11.10;99.90;;;;;;5055792;28;20135;-61
2022/12/31 07:39:23;;;;;;;4.30;3.20;;;11.00;99.90;;;;;;5055506;28;20049;-63
2022/12/31 07:41:54;;;;;;;4.85;3.22;;;11.00;99.90;;;;;;5055632;28;20520;-64
2022/12/31 07:44:31;;;;;;;3.42;2.90;;;11.00;99.90;;;;;;5055431;28;20550;-61
2022/12/31 07:47:00;;;;;;;3.85;2.60;;;11.10;99.90;;;;;;5051624;28;20076;-62
2022/12/31 07:49:28;;;;;;;2.47;2.25;;;11.10;99.90;;;;;;5053578;28;20092;-63
2022/12/31 07:51:55;;;;;;;2.53;1.98;;;11.10;99.90;;;;;;5057601;28;20119;-63
2022/12/31 07:54:22;;;;;;;1.98;1.75;;;11.10;99.90;;;;;;5060657;28;20494;-65
2022/12/31 07:56:49;;;;;;;2.15;1.45;;;11.10;99.90;;;;;;5059358;28;20096;-66
2022/12/31 07:59:21;;;;;;;2.45;1.92;;;11.20;99.90;;;;;;5061366;28;20060;-63
2022/12/31 08:01:50;;;;;;;2.63;2.17;;;11.20;99.90;;;;;;5059656;28;20110;-62
2022/12/31 08:04:23;;;;;;;3.03;2.10;;;11.20;99.90;;;;;;5059824;28;20049;-61
2022/12/31 08:06:53;;;;;;;2.63;1.80;;;11.20;99.90;;;;;;5061306;28;20084;-63
2022/12/31 08:09:36;;;;;;;2.38;2.13;;;11.20;99.90;;;;;;5060988;28;20179;-63
2022/12/31 08:12:03;;;;;;;4.43;3.40;;;11.30;99.90;;;;;;5061417;28;20512;-53
2022/12/31 08:14:30;;;;;;;2.85;2.53;;;11.30;99.90;;;;;;5060768;28;20080;-59
2022/12/31 08:16:58;;;;;;;3.88;3.33;;;11.30;99.90;;;;;;5058327;28;20045;-61
2022/12/31 08:19:29;;;;;;;5.07;3.47;;;11.30;99.90;;;;;;5061484;28;20088;-62
2022/12/31 08:22:04;;;;;;;4.07;3.30;;;11.40;99.90;;;;;;5057596;28;20107;-59
2022/12/31 08:24:34;;;;;;;3.60;3.28;;;11.30;99.90;;;;;;5059288;28;20451;-61
2022/12/31 08:27:04;;;;;;;3.63;3.25;;;11.40;99.90;;;;;;5060366;28;20049;-64
2022/12/31 08:29:35;;;;;;;5.93;3.30;;;11.30;99.90;;;;;;5059597;28;20049;-54
2022/12/31 08:32:06;;;;;;;3.70;2.83;;;11.40;99.90;;;;;;5056422;28;20053;-61
2022/12/31 08:34:37;;;;;;;4.05;3.22;;;11.50;99.90;;;;;;5058345;28;20498;-62
2022/12/31 08:37:06;;;;;;;3.58;3.20;;;11.50;99.90;;;;;;5066262;28;20084;-62
2022/12/31 08:39:41;;;;;;;5.85;3.67;;;11.50;99.90;;;;;;5066703;28;20041;-62
2022/12/31 08:42:17;;;;;;;5.95;3.50;;;11.60;99.90;;;;;;5054900;28;20487;-56
2022/12/31 08:44:46;;;;;;;5.60;3.63;;;11.60;99.90;;;;;;5054051;28;20107;-60
2022/12/31 08:47:17;;;;;;;5.38;4.03;;;11.70;99.90;;;;;;5054356;28;20057;-64
2022/12/31 08:49:45;;;;;;;5.30;4.27;;;11.70;99.90;;;;;;5059731;28;20052;-61
2022/12/31 08:52:14;;;;;;;8.98;4.05;;;11.70;99.90;;;;;;5059078;28;20333;-57
2022/12/31 08:54:42;;;;;;;7.70;5.28;;;11.80;99.90;;;;;;5058790;28;20473;-61
2022/12/31 08:57:12;;;;;;;7.25;4.60;;;11.80;99.90;;;;;;5060459;28;20053;-62
2022/12/31 08:59:43;;;;;;;4.97;3.83;;;11.90;99.90;;;;;;5059494;28;20099;-63
2022/12/31 09:02:24;;;;;;;5.10;3.92;;;11.90;99.90;;;;;;5060637;28;20076;-52
2022/12/31 09:04:59;;;;;;;4.35;3.72;;;12.00;99.90;;;;;;5058692;28;20450;-61
2022/12/31 09:07:28;;;;;;;5.38;4.15;;;12.10;99.90;;;;;;5056080;28;20041;-62
2022/12/31 09:09:58;;;;;;;5.15;4.10;;;12.10;99.90;;;;;;5055223;28;20120;-62
2022/12/31 09:12:28;;;;;;;8.80;3.67;;;12.10;99.90;;;;;;5057005;28;20053;-61
2022/12/31 09:14:57;;;;;;;4.78;3.20;;;12.20;99.90;;;;;;5055652;28;20477;-61
2022/12/31 09:17:43;;;;;;;4.88;3.28;;;12.20;99.90;;;;;;5056219;28;20100;-61
2022/12/31 09:20:19;;;;;;;5.43;3.28;;;12.30;99.90;;;;;;5054695;28;20547;-52
2022/12/31 09:22:46;;;;;;;3.75;2.72;;;12.30;99.90;;;;;;5050333;28;20045;-62
2022/12/31 09:25:14;;;;;;;4.30;2.80;;;12.30;99.90;;;;;;5056360;28;20099;-57
2022/12/31 09:27:44;;;;;;;8.43;4.07;;;12.40;99.90;;;;;;5058232;28;20063;-63
2022/12/31 09:30:12;;;;;;;3.38;1.88;;;12.40;99.90;;;;;;5057980;28;20114;-64
2022/12/31 09:32:42;;;;;;;4.70;2.55;;;12.50;99.90;;;;;;5056884;28;20106;-65
2022/12/31 09:35:13;;;;;;;3.72;2.13;;;12.50;99.90;;;;;;5055936;28;20049;-65
2022/12/31 09:37:45;;;;;;;5.88;2.60;;;12.50;99.90;;;;;;5053251;28;20060;-60
2022/12/31 09:40:46;;;;;;;5.68;2.22;;;12.60;99.90;;;;;;5053000;28;20482;-63
2022/12/31 09:43:41;;;;;;;4.90;1.58;;;12.60;99.90;;;;;;5048845;28;20128;-63
2022/12/31 09:46:23;;;;;;;2.67;1.55;;;12.60;99.90;;;;;;5043570;28;20088;-63
2022/12/31 09:49:34;;;;;;;6.68;4.10;;;12.60;99.90;;;;;;5048649;28;20088;-61
2022/12/31 09:52:04;;;;;;;3.75;2.38;;;12.70;99.90;;;;;;4953156;28;20105;-63
2022/12/31 09:54:44;;;;;;;8.18;3.03;;;12.70;99.90;;;;;;5045119;28;20080;-62
2022/12/31 09:57:38;;;;;;;3.42;2.00;;;12.70;99.90;;;;;;5051868;28;20052;-62
2022/12/31 10:00:09;;;;;;;3.35;1.70;;;12.80;99.90;;;;;;5049820;28;20056;-61
2022/12/31 10:03:07;;;;;;;2.13;1.70;;;12.80;99.90;;;;;;5052981;28;20048;-63
2022/12/31 10:05:50;;;;;;;5.75;3.30;;;12.80;99.90;;;;;;5050873;28;20132;-62
2022/12/31 10:08:28;;;;;;;3.28;2.05;;;12.90;99.90;;;;;;5050132;28;20098;-62
2022/12/31 10:10:58;;;;;;;4.70;3.15;;;12.90;99.90;;;;;;5052190;28;20052;-61
2022/12/31 10:13:30;;;;;;;4.68;3.70;;;12.90;99.90;;;;;;5050337;28;20048;-62
2022/12/31 10:16:06;;;;;;;3.92;2.28;;;13.00;99.90;;;;;;5051749;28;20065;-62
2022/12/31 10:18:45;;;;;;;5.15;1.67;;;13.00;99.90;;;;;;5052675;28;20045;-61
2022/12/31 10:21:19;;;;;;;4.45;2.08;;;13.10;99.90;;;;;;5047725;28;20569;-59
2022/12/31 10:24:04;;;;;;;6.63;2.40;;;13.10;99.90;;;;;;5047956;28;20041;-63
2022/12/31 10:26:56;;;;;;;7.75;3.35;;;13.10;99.90;;;;;;5051523;28;20080;-56
2022/12/31 10:29:25;;;;;;;4.93;2.00;;;13.10;99.90;;;;;;5041884;28;20197;-62
2022/12/31 10:31:58;;;;;;;8.50;3.20;;;13.10;99.90;;;;;;5050332;28;20041;-63
2022/12/31 10:34:26;;;;;;;7.68;3.30;;;13.10;99.90;;;;;;5050870;28;20115;-57
2022/12/31 10:36:55;;;;;;;8.10;4.25;;;13.10;99.90;;;;;;5051250;28;20493;-62
2022/12/31 10:39:30;;;;;;;16.52;10.88;;;13.20;99.90;;;;;;5049029;28;20458;-62
2022/12/31 10:42:38;;;;;;;9.05;5.32;;;13.20;99.90;;;;;;5051138;28;20135;-63
2022/12/31 10:46:05;;;;;;;5.70;3.50;;;13.20;99.90;;;;;;5051059;28;20527;-59
2022/12/31 10:49:08;;;;;;;5.57;2.67;;;13.30;99.90;;;;;;4993423;28;20108;-60
2022/12/31 10:51:57;;;;;;;8.68;1.85;;;13.30;99.90;;;;;;5048024;28;20142;-62
2022/12/31 10:55:00;;;;;;;6.00;2.78;;;13.30;99.90;;;;;;5052028;28;20075;-59
2022/12/31 10:57:46;;;;;;;7.82;4.45;;;13.30;99.90;;;;;;5050725;28;20103;-61
2022/12/31 11:00:17;;;;;;;11.18;4.25;;;13.30;99.90;;;;;;5048296;28;20084;-66
2022/12/31 11:03:20;;;;;;;10.10;4.50;;;13.30;99.90;;;;;;5056665;28;20096;-63
2022/12/31 11:06:20;;;;;;;8.15;1.90;;;13.30;99.90;;;;;;5040299;28;20076;-62
2022/12/31 11:09:26;;;;;;;9.60;3.75;;;13.30;99.90;;;;;;5051289;28;20187;-60
2022/12/31 11:11:56;;;;;;;5.22;1.90;;;13.30;99.90;;;;;;5052739;28;20099;-58
2022/12/31 11:14:42;;;;;;;12.32;5.28;;;13.30;99.90;;;;;;5050539;28;20126;-56
2022/12/31 11:17:20;;;;;;;6.88;2.20;;;13.30;99.90;;;;;;5058563;28;20088;-56
2022/12/31 11:19:51;;;;;;;5.30;1.92;;;13.30;99.90;;;;;;5054047;28;20471;-55
2022/12/31 11:22:32;;;;;;;5.43;1.60;;;13.30;99.90;;;;;;5055586;28;20069;-58
2022/12/31 11:25:19;;;;;;;6.13;1.60;;;13.30;99.90;;;;;;5050481;28;20063;-58
2022/12/31 11:27:54;;;;;;;5.72;1.70;;;13.30;99.90;;;;;;5052680;28;20088;-58
2022/12/31 11:30:22;;;;;;;5.35;2.10;;;13.20;99.90;;;;;;5052012;28;20457;-60
2022/12/31 11:32:57;;;;;;;6.95;2.50;;;13.20;99.90;;;;;;5056662;28;20476;-57
2022/12/31 11:35:31;;;;;;;14.95;9.07;;;13.20;99.90;;;;;;5055910;28;20083;-61
2022/12/31 11:38:02;;;;;;;7.75;2.63;;;13.20;99.90;;;;;;5053709;28;20057;-61
2022/12/31 11:40:43;;;;;;;8.95;3.20;;;13.20;99.90;;;;;;5052475;28;20084;-55
2022/12/31 11:43:23;;;;;;;7.45;2.45;;;13.20;99.90;;;;;;5048982;28;20141;-62
2022/12/31 11:46:14;;;;;;;8.43;2.42;;;13.30;99.90;;;;;;5055040;28;20076;-59
2022/12/31 11:48:43;;;;;;;8.48;2.67;;;13.30;99.90;;;;;;5050085;28;20119;-62
2022/12/31 11:51:24;;;;;;;11.50;3.58;;;13.30;99.90;;;;;;5048936;28;20076;-60
2022/12/31 11:54:34;;;;;;;13.50;6.97;;;13.30;99.90;;;;;;5050661;28;20091;-59
2022/12/31 11:57:05;;;;;;;9.82;4.47;;;13.40;99.90;;;;;;5012512;28;20484;-60
2022/12/31 11:59:31;;;;;;;9.20;5.15;;;13.30;99.90;;;;;;5048297;28;20171;-61
2022/12/31 12:02:00;;;;;;;15.18;9.40;;;13.40;99.90;;;;;;5046913;28;20136;-61
2022/12/31 12:04:27;;;;;;;14.32;7.15;;;13.50;99.90;;;;;;5044659;28;20053;-61
2022/12/31 12:06:54;;;;;;;14.02;9.52;;;13.50;99.90;;;;;;5050892;28;20489;-61
2022/12/31 12:09:25;;;;;;;15.77;13.10;;;13.50;99.90;;;;;;5048675;28;20135;-61
2022/12/31 12:11:58;;;;;;;17.55;12.75;;;13.60;99.90;;;;;;5052918;28;20141;-62
2022/12/31 12:14:31;;;;;;;8.95;4.80;;;13.60;99.90;;;;;;5047443;28;20488;-58
2022/12/31 12:16:58;;;;;;;14.85;7.82;;;13.60;99.90;;;;;;5055870;28;20085;-61
2022/12/31 12:19:26;;;;;;;12.02;4.53;;;13.60;99.90;;;;;;5053830;28;20390;-62
2022/12/31 12:21:53;;;;;;;4.65;2.80;;;13.70;99.90;;;;;;5050536;28;20483;-61
2022/12/31 12:24:21;;;;;;;7.15;4.00;;;13.80;99.90;;;;;;5047588;28;20123;-60
2022/12/31 12:26:48;;;;;;;20.55;11.93;;;13.80;99.90;;;;;;5052228;28;20049;-60
2022/12/31 12:29:17;;;;;;;10.43;5.35;;;13.80;99.90;;;;;;5049435;28;20049;-61
2022/12/31 12:31:55;;;;;;;4.50;2.25;;;13.80;99.90;;;;;;5051838;28;20084;-58
2022/12/31 12:34:24;;;;;;;6.32;2.85;;;13.80;99.90;;;;;;5049258;28;20053;-55
2022/12/31 12:36:50;;;;;;;8.23;2.22;;;13.90;99.90;;;;;;5054682;28;20092;-59
2022/12/31 12:39:20;;;;;;;16.77;10.40;;;13.90;99.90;;;;;;5054580;28;20064;-59
2022/12/31 12:41:47;;;;;;;12.35;6.13;;;13.90;99.90;;;;;;5054306;28;20056;-59
2022/12/31 12:44:15;;;;;;;26.95;14.90;;;13.80;99.90;;;;;;5051885;28;20069;-57
2022/12/31 12:46:44;;;;;;;12.35;5.30;;;13.90;99.90;;;;;;5053087;28;20094;-60
2022/12/31 12:49:18;;;;;;;9.00;4.18;;;13.90;99.90;;;;;;5055963;28;20049;-60
2022/12/31 12:51:54;;;;;;;14.85;8.45;;;13.90;99.90;;;;;;5055723;28;20094;-59
2022/12/31 12:54:28;;;;;;;7.28;2.10;;;13.90;99.90;;;;;;5052498;28;20052;-58
2022/12/31 12:56:59;;;;;;;7.68;3.60;;;13.80;99.90;;;;;;5064433;28;20048;-60
2022/12/31 12:59:43;;;;;;;9.25;3.13;;;13.80;99.90;;;;;;5053909;28;20044;-60
2022/12/31 13:02:23;;;;;;;7.63;2.60;;;13.80;99.90;;;;;;5051563;28;20416;-59
2022/12/31 13:04:58;;;;;;;14.60;10.07;;;13.80;99.90;;;;;;5058655;28;20083;-61
2022/12/31 13:07:28;;;;;;;18.65;13.07;;;13.70;99.90;;;;;;5052700;28;20092;-60
2022/12/31 13:10:20;;;;;;;6.63;2.50;;;13.70;99.90;;;;;;5053820;28;20148;-60
2022/12/31 13:12:49;;;;;;;9.27;4.72;;;13.70;99.90;;;;;;5052810;28;20084;-55
2022/12/31 13:15:18;;;;;;;7.82;3.95;;;13.70;99.90;;;;;;5057730;28;20080;-59